sensor_id;sensor_type;location;lat;lon;timestamp;temperature;humidity
27803;DHT22;15182;48.174;11.562;2023-02-05T00:01:58;7.30;90.40
27803;DHT22;15182;48.174;11.562;2023-02-05T00:04:29;7.30;90.40
27803;DHT22;15182;48.174;11.562;2023-02-05T00:07:01;7.30;90.40
27803;DHT22;15182;48.174;11.562;2023-02-05T00:09:33;7.20;90.40
27803;DHT22;15182;48.174;11.562;2023-02-05T00:12:09;7.20;90.50
27803;DHT22;15182;48.174;11.562;2023-02-05T00:14:40;7.20;90.40
27803;DHT22;15182;48.174;11.562;2023-02-05T00:17:12;7.20;90.40
27803;DHT22;15182;48.174;11.562;2023-02-05T00:19:43;7.20;90.50
27803;DHT22;15182;48.174;11.562;2023-02-05T00:22:14;7.20;90.50
27803;DHT22;15182;48.174;11.562;2023-02-05T00:24:46;7.20;90.50
27803;DHT22;15182;48.174;11.562;2023-02-05T00:27:19;7.20;90.50
27803;DHT22;15182;48.174;11.562;2023-02-05T00:29:50;7.10;90.50
27803;DHT22;15182;48.174;11.562;2023-02-05T00:32:21;7.10;90.40
27803;DHT22;15182;48.174;11.562;2023-02-05T00:34:52;7.10;90.50
27803;DHT22;15182;48.174;11.562;2023-02-05T00:37:24;7.10;90.50
27803;DHT22;15182;48.174;11.562;2023-02-05T00:39:55;7.10;90.50
27803;DHT22;15182;48.174;11.562;2023-02-05T00:42:26;7.10;90.50
27803;DHT22;15182;48.174;11.562;2023-02-05T00:44:58;7.10;90.50
27803;DHT22;15182;48.174;11.562;2023-02-05T00:47:29;7.10;90.60
27803;DHT22;15182;48.174;11.562;2023-02-05T00:50:01;7.00;90.50
27803;DHT22;15182;48.174;11.562;2023-02-05T00:52:32;7.00;90.50
27803;DHT22;15182;48.174;11.562;2023-02-05T00:55:03;7.00;90.50
27803;DHT22;15182;48.174;11.562;2023-02-05T00:57:37;7.00;90.50
27803;DHT22;15182;48.174;11.562;2023-02-05T01:00:10;7.00;90.50
27803;DHT22;15182;48.174;11.562;2023-02-05T01:02:44;7.00;90.60
27803;DHT22;15182;48.174;11.562;2023-02-05T01:05:15;7.00;90.60
27803;DHT22;15182;48.174;11.562;2023-02-05T01:07:46;7.00;90.60
27803;DHT22;15182;48.174;11.562;2023-02-05T01:10:18;7.00;90.60
27803;DHT22;15182;48.174;11.562;2023-02-05T01:12:51;7.00;90.60
27803;DHT22;15182;48.174;11.562;2023-02-05T01:15:23;6.90;90.50
27803;DHT22;15182;48.174;11.562;2023-02-05T01:17:54;6.90;90.60
27803;DHT22;15182;48.174;11.562;2023-02-05T01:20:26;6.90;90.60
27803;DHT22;15182;48.174;11.562;2023-02-05T01:22:58;6.90;90.60
27803;DHT22;15182;48.174;11.562;2023-02-05T01:25:29;6.90;90.60
27803;DHT22;15182;48.174;11.562;2023-02-05T01:28:02;6.90;90.70
27803;DHT22;15182;48.174;11.562;2023-02-05T01:30:33;6.90;90.70
27803;DHT22;15182;48.174;11.562;2023-02-05T01:33:05;6.90;90.70
27803;DHT22;15182;48.174;11.562;2023-02-05T01:35:37;6.80;90.60
27803;DHT22;15182;48.174;11.562;2023-02-05T01:38:09;6.80;90.70
27803;DHT22;15182;48.174;11.562;2023-02-05T01:40:40;6.80;90.60
27803;DHT22;15182;48.174;11.562;2023-02-05T01:43:15;6.80;90.60
27803;DHT22;15182;48.174;11.562;2023-02-05T01:46:06;6.80;90.60
27803;DHT22;15182;48.174;11.562;2023-02-05T01:48:45;6.80;90.50
27803;DHT22;15182;48.174;11.562;2023-02-05T01:51:19;6.80;90.60
27803;DHT22;15182;48.174;11.562;2023-02-05T01:53:52;6.80;90.60
27803;DHT22;15182;48.174;11.562;2023-02-05T01:56:26;6.80;90.60
27803;DHT22;15182;48.174;11.562;2023-02-05T01:59:04;6.80;90.50
27803;DHT22;15182;48.174;11.562;2023-02-05T02:01:38;6.80;90.50
27803;DHT22;15182;48.174;11.562;2023-02-05T02:04:14;6.80;90.50
27803;DHT22;15182;48.174;11.562;2023-02-05T02:06:49;6.80;90.50
27803;DHT22;15182;48.174;11.562;2023-02-05T02:09:20;6.80;90.50
27803;DHT22;15182;48.174;11.562;2023-02-05T02:11:52;6.80;90.60
27803;DHT22;15182;48.174;11.562;2023-02-05T02:14:28;6.80;90.60
27803;DHT22;15182;48.174;11.562;2023-02-05T02:17:02;6.70;90.50
27803;DHT22;15182;48.174;11.562;2023-02-05T02:19:39;6.70;90.60
27803;DHT22;15182;48.174;11.562;2023-02-05T02:22:40;6.70;90.50
27803;DHT22;15182;48.174;11.562;2023-02-05T02:25:41;6.70;90.50
27803;DHT22;15182;48.174;11.562;2023-02-05T02:28:27;6.70;90.60
27803;DHT22;15182;48.174;11.562;2023-02-05T02:31:05;6.70;90.60
27803;DHT22;15182;48.174;11.562;2023-02-05T02:33:42;6.70;90.60
27803;DHT22;15182;48.174;11.562;2023-02-05T02:36:20;6.70;90.60
27803;DHT22;15182;48.174;11.562;2023-02-05T02:38:57;6.70;90.60
27803;DHT22;15182;48.174;11.562;2023-02-05T02:41:41;6.60;90.60
27803;DHT22;15182;48.174;11.562;2023-02-05T02:44:22;6.60;90.60
27803;DHT22;15182;48.174;11.562;2023-02-05T02:46:58;6.60;90.60
27803;DHT22;15182;48.174;11.562;2023-02-05T02:49:34;6.60;90.60
27803;DHT22;15182;48.174;11.562;2023-02-05T02:52:09;6.60;90.60
27803;DHT22;15182;48.174;11.562;2023-02-05T02:54:44;6.60;90.60
27803;DHT22;15182;48.174;11.562;2023-02-05T02:57:21;6.60;90.50
27803;DHT22;15182;48.174;11.562;2023-02-05T02:59:58;6.60;90.50
27803;DHT22;15182;48.174;11.562;2023-02-05T03:02:34;6.60;90.50
27803;DHT22;15182;48.174;11.562;2023-02-05T03:05:11;6.60;90.60
27803;DHT22;15182;48.174;11.562;2023-02-05T03:07:49;6.60;90.50
27803;DHT22;15182;48.174;11.562;2023-02-05T03:10:28;6.60;90.50
27803;DHT22;15182;48.174;11.562;2023-02-05T03:13:04;6.60;90.50
27803;DHT22;15182;48.174;11.562;2023-02-05T03:15:37;6.60;90.50
27803;DHT22;15182;48.174;11.562;2023-02-05T03:18:08;6.60;90.60
27803;DHT22;15182;48.174;11.562;2023-02-05T03:20:44;6.50;90.60
27803;DHT22;15182;48.174;11.562;2023-02-05T03:23:17;6.50;90.60
27803;DHT22;15182;48.174;11.562;2023-02-05T03:25:48;6.60;90.60
27803;DHT22;15182;48.174;11.562;2023-02-05T03:28:25;6.60;90.70
27803;DHT22;15182;48.174;11.562;2023-02-05T03:31:02;6.50;90.70
27803;DHT22;15182;48.174;11.562;2023-02-05T03:33:41;6.50;90.70
27803;DHT22;15182;48.174;11.562;2023-02-05T03:36:25;6.50;91.10
27803;DHT22;15182;48.174;11.562;2023-02-05T03:39:09;6.50;90.70
27803;DHT22;15182;48.174;11.562;2023-02-05T03:41:47;6.50;90.70
27803;DHT22;15182;48.174;11.562;2023-02-05T03:44:36;6.50;90.70
27803;DHT22;15182;48.174;11.562;2023-02-05T03:47:18;6.50;90.70
27803;DHT22;15182;48.174;11.562;2023-02-05T03:49:57;6.50;90.70
27803;DHT22;15182;48.174;11.562;2023-02-05T03:52:34;6.50;90.70
27803;DHT22;15182;48.174;11.562;2023-02-05T03:55:13;6.50;90.70
27803;DHT22;15182;48.174;11.562;2023-02-05T03:57:51;6.50;90.70
27803;DHT22;15182;48.174;11.562;2023-02-05T04:00:26;6.50;90.70
27803;DHT22;15182;48.174;11.562;2023-02-05T04:02:59;6.50;90.80
27803;DHT22;15182;48.174;11.562;2023-02-05T04:05:33;6.40;90.70
27803;DHT22;15182;48.174;11.562;2023-02-05T04:08:06;6.40;90.70
27803;DHT22;15182;48.174;11.562;2023-02-05T04:10:44;6.40;90.70
27803;DHT22;15182;48.174;11.562;2023-02-05T04:13:15;6.40;90.70
27803;DHT22;15182;48.174;11.562;2023-02-05T04:15:49;6.40;91.10
27803;DHT22;15182;48.174;11.562;2023-02-05T04:18:23;6.40;90.70
27803;DHT22;15182;48.174;11.562;2023-02-05T04:20:55;6.30;90.70
27803;DHT22;15182;48.174;11.562;2023-02-05T04:23:29;6.30;90.70
27803;DHT22;15182;48.174;11.562;2023-02-05T04:26:02;6.30;90.70
27803;DHT22;15182;48.174;11.562;2023-02-05T04:28:40;6.30;90.70
27803;DHT22;15182;48.174;11.562;2023-02-05T04:31:13;6.30;90.70
27803;DHT22;15182;48.174;11.562;2023-02-05T04:33:47;6.20;90.70
27803;DHT22;15182;48.174;11.562;2023-02-05T04:36:20;6.20;90.80
27803;DHT22;15182;48.174;11.562;2023-02-05T04:38:51;6.20;90.70
27803;DHT22;15182;48.174;11.562;2023-02-05T04:41:23;6.20;90.80
27803;DHT22;15182;48.174;11.562;2023-02-05T04:43:51;6.10;90.80
27803;DHT22;15182;48.174;11.562;2023-02-05T04:46:23;6.10;90.80
27803;DHT22;15182;48.174;11.562;2023-02-05T04:48:56;6.10;90.80
27803;DHT22;15182;48.174;11.562;2023-02-05T04:51:28;6.10;90.80
27803;DHT22;15182;48.174;11.562;2023-02-05T04:53:59;6.10;90.80
27803;DHT22;15182;48.174;11.562;2023-02-05T04:56:30;6.10;90.90
27803;DHT22;15182;48.174;11.562;2023-02-05T04:59:01;6.10;90.90
27803;DHT22;15182;48.174;11.562;2023-02-05T05:01:36;6.00;90.90
27803;DHT22;15182;48.174;11.562;2023-02-05T05:04:09;6.00;91.10
27803;DHT22;15182;48.174;11.562;2023-02-05T05:06:40;6.00;90.90
27803;DHT22;15182;48.174;11.562;2023-02-05T05:09:12;6.00;90.90
27803;DHT22;15182;48.174;11.562;2023-02-05T05:11:43;6.00;90.90
27803;DHT22;15182;48.174;11.562;2023-02-05T05:14:14;6.00;91.00
27803;DHT22;15182;48.174;11.562;2023-02-05T05:16:46;6.00;91.00
27803;DHT22;15182;48.174;11.562;2023-02-05T05:19:19;6.00;91.00
27803;DHT22;15182;48.174;11.562;2023-02-05T05:21:50;6.00;91.00
27803;DHT22;15182;48.174;11.562;2023-02-05T05:24:21;6.00;91.10
27803;DHT22;15182;48.174;11.562;2023-02-05T05:26:53;6.00;91.10
27803;DHT22;15182;48.174;11.562;2023-02-05T05:29:24;6.00;91.10
27803;DHT22;15182;48.174;11.562;2023-02-05T05:31:55;6.00;91.10
27803;DHT22;15182;48.174;11.562;2023-02-05T05:34:28;5.90;91.10
27803;DHT22;15182;48.174;11.562;2023-02-05T05:37:00;5.90;91.10
27803;DHT22;15182;48.174;11.562;2023-02-05T05:39:31;5.90;91.20
27803;DHT22;15182;48.174;11.562;2023-02-05T05:42:20;5.90;91.10
27803;DHT22;15182;48.174;11.562;2023-02-05T05:45:12;5.90;91.20
27803;DHT22;15182;48.174;11.562;2023-02-05T05:47:43;5.90;91.20
27803;DHT22;15182;48.174;11.562;2023-02-05T05:50:17;5.90;91.20
27803;DHT22;15182;48.174;11.562;2023-02-05T05:52:48;5.90;91.20
27803;DHT22;15182;48.174;11.562;2023-02-05T05:55:20;5.90;91.20
27803;DHT22;15182;48.174;11.562;2023-02-05T05:57:51;5.90;91.20
27803;DHT22;15182;48.174;11.562;2023-02-05T06:00:23;5.90;91.20
27803;DHT22;15182;48.174;11.562;2023-02-05T06:02:54;5.90;91.20
27803;DHT22;15182;48.174;11.562;2023-02-05T06:05:27;5.80;91.20
27803;DHT22;15182;48.174;11.562;2023-02-05T06:07:58;5.80;91.30
27803;DHT22;15182;48.174;11.562;2023-02-05T06:10:29;5.90;91.20
27803;DHT22;15182;48.174;11.562;2023-02-05T06:13:01;5.80;91.20
27803;DHT22;15182;48.174;11.562;2023-02-05T06:15:32;5.80;91.20
27803;DHT22;15182;48.174;11.562;2023-02-05T06:18:03;5.80;91.20
27803;DHT22;15182;48.174;11.562;2023-02-05T06:20:36;5.80;91.30
27803;DHT22;15182;48.174;11.562;2023-02-05T06:23:08;5.80;91.30
27803;DHT22;15182;48.174;11.562;2023-02-05T06:25:40;5.80;91.30
27803;DHT22;15182;48.174;11.562;2023-02-05T06:28:11;5.80;91.30
27803;DHT22;15182;48.174;11.562;2023-02-05T06:30:42;5.80;91.40
27803;DHT22;15182;48.174;11.562;2023-02-05T06:33:14;5.80;91.40
27803;DHT22;15182;48.174;11.562;2023-02-05T06:35:47;5.80;91.40
27803;DHT22;15182;48.174;11.562;2023-02-05T06:38:18;5.80;91.40
27803;DHT22;15182;48.174;11.562;2023-02-05T06:40:50;5.80;91.50
27803;DHT22;15182;48.174;11.562;2023-02-05T06:43:21;5.80;91.50
27803;DHT22;15182;48.174;11.562;2023-02-05T06:45:52;5.80;91.50
27803;DHT22;15182;48.174;11.562;2023-02-05T06:48:23;5.80;91.50
27803;DHT22;15182;48.174;11.562;2023-02-05T06:50:56;5.80;91.50
27803;DHT22;15182;48.174;11.562;2023-02-05T06:53:27;5.80;91.50
27803;DHT22;15182;48.174;11.562;2023-02-05T06:55:59;5.80;91.50
27803;DHT22;15182;48.174;11.562;2023-02-05T06:58:30;5.80;91.40
27803;DHT22;15182;48.174;11.562;2023-02-05T07:01:03;5.80;91.40
27803;DHT22;15182;48.174;11.562;2023-02-05T07:03:34;5.80;91.40
27803;DHT22;15182;48.174;11.562;2023-02-05T07:06:07;5.80;91.50
27803;DHT22;15182;48.174;11.562;2023-02-05T07:08:38;5.80;91.50
27803;DHT22;15182;48.174;11.562;2023-02-05T07:11:09;5.80;91.50
27803;DHT22;15182;48.174;11.562;2023-02-05T07:13:41;5.80;91.50
27803;DHT22;15182;48.174;11.562;2023-02-05T07:16:13;5.80;91.50
27803;DHT22;15182;48.174;11.562;2023-02-05T07:18:44;5.80;91.50
27803;DHT22;15182;48.174;11.562;2023-02-05T07:21:17;5.80;91.50
27803;DHT22;15182;48.174;11.562;2023-02-05T07:23:50;5.80;91.50
27803;DHT22;15182;48.174;11.562;2023-02-05T07:26:21;5.80;91.50
27803;DHT22;15182;48.174;11.562;2023-02-05T07:28:52;5.80;91.50
27803;DHT22;15182;48.174;11.562;2023-02-05T07:31:23;5.80;91.50
27803;DHT22;15182;48.174;11.562;2023-02-05T07:33:57;5.80;91.50
27803;DHT22;15182;48.174;11.562;2023-02-05T07:36:30;5.80;91.60
27803;DHT22;15182;48.174;11.562;2023-02-05T07:39:01;5.90;91.60
27803;DHT22;15182;48.174;11.562;2023-02-05T07:41:32;5.90;91.60
27803;DHT22;15182;48.174;11.562;2023-02-05T07:44:03;5.90;91.60
27803;DHT22;15182;48.174;11.562;2023-02-05T07:46:34;5.90;91.60
27803;DHT22;15182;48.174;11.562;2023-02-05T07:49:06;5.90;91.60
27803;DHT22;15182;48.174;11.562;2023-02-05T07:51:39;5.90;91.60
27803;DHT22;15182;48.174;11.562;2023-02-05T07:54:11;5.90;91.60
27803;DHT22;15182;48.174;11.562;2023-02-05T07:56:42;5.90;91.60
27803;DHT22;15182;48.174;11.562;2023-02-05T07:59:14;5.90;91.70
27803;DHT22;15182;48.174;11.562;2023-02-05T08:01:45;5.90;91.60
27803;DHT22;15182;48.174;11.562;2023-02-05T08:04:16;6.00;91.70
27803;DHT22;15182;48.174;11.562;2023-02-05T08:06:48;6.00;91.70
27803;DHT22;15182;48.174;11.562;2023-02-05T08:09:20;5.90;91.70
27803;DHT22;15182;48.174;11.562;2023-02-05T08:11:51;5.90;91.70
27803;DHT22;15182;48.174;11.562;2023-02-05T08:14:22;5.90;92.10
27803;DHT22;15182;48.174;11.562;2023-02-05T08:16:54;5.90;91.80
27803;DHT22;15182;48.174;11.562;2023-02-05T08:19:25;5.90;91.80
27803;DHT22;15182;48.174;11.562;2023-02-05T08:21:58;6.00;91.80
27803;DHT22;15182;48.174;11.562;2023-02-05T08:24:29;6.00;91.80
27803;DHT22;15182;48.174;11.562;2023-02-05T08:27:01;6.00;91.70
27803;DHT22;15182;48.174;11.562;2023-02-05T08:29:32;6.00;91.70
27803;DHT22;15182;48.174;11.562;2023-02-05T08:32:03;6.00;91.70
27803;DHT22;15182;48.174;11.562;2023-02-05T08:34:35;6.00;91.70
27803;DHT22;15182;48.174;11.562;2023-02-05T08:37:08;6.00;91.60
27803;DHT22;15182;48.174;11.562;2023-02-05T08:39:39;6.00;91.60
27803;DHT22;15182;48.174;11.562;2023-02-05T08:42:11;6.10;91.60
27803;DHT22;15182;48.174;11.562;2023-02-05T08:44:43;6.10;91.60
27803;DHT22;15182;48.174;11.562;2023-02-05T08:47:15;6.10;91.50
27803;DHT22;15182;48.174;11.562;2023-02-05T08:49:48;6.10;91.50
27803;DHT22;15182;48.174;11.562;2023-02-05T08:52:22;6.20;91.50
27803;DHT22;15182;48.174;11.562;2023-02-05T08:54:53;6.20;91.50
27803;DHT22;15182;48.174;11.562;2023-02-05T08:57:28;6.20;91.50
27803;DHT22;15182;48.174;11.562;2023-02-05T08:59:59;6.20;91.50
27803;DHT22;15182;48.174;11.562;2023-02-05T09:02:30;6.30;91.60
27803;DHT22;15182;48.174;11.562;2023-02-05T09:05:01;6.30;91.60
27803;DHT22;15182;48.174;11.562;2023-02-05T09:07:34;6.40;91.70
27803;DHT22;15182;48.174;11.562;2023-02-05T09:10:07;6.50;91.70
27803;DHT22;15182;48.174;11.562;2023-02-05T09:12:40;6.60;91.70
27803;DHT22;15182;48.174;11.562;2023-02-05T09:15:11;6.70;91.70
27803;DHT22;15182;48.174;11.562;2023-02-05T09:17:42;6.80;91.70
27803;DHT22;15182;48.174;11.562;2023-02-05T09:20:14;6.90;91.70
27803;DHT22;15182;48.174;11.562;2023-02-05T09:22:47;7.00;91.70
27803;DHT22;15182;48.174;11.562;2023-02-05T09:25:20;7.10;91.60
27803;DHT22;15182;48.174;11.562;2023-02-05T09:27:52;7.20;91.60
27803;DHT22;15182;48.174;11.562;2023-02-05T09:30:23;7.30;91.60
27803;DHT22;15182;48.174;11.562;2023-02-05T09:32:55;7.40;91.50
27803;DHT22;15182;48.174;11.562;2023-02-05T09:35:26;7.50;91.70
27803;DHT22;15182;48.174;11.562;2023-02-05T09:37:59;7.60;91.60
27803;DHT22;15182;48.174;11.562;2023-02-05T09:40:31;7.70;91.70
27803;DHT22;15182;48.174;11.562;2023-02-05T09:43:16;7.80;91.70
27803;DHT22;15182;48.174;11.562;2023-02-05T09:45:58;8.00;91.80
27803;DHT22;15182;48.174;11.562;2023-02-05T09:48:47;8.20;91.80
27803;DHT22;15182;48.174;11.562;2023-02-05T09:51:32;8.30;91.70
27803;DHT22;15182;48.174;11.562;2023-02-05T09:54:14;8.50;91.70
27803;DHT22;15182;48.174;11.562;2023-02-05T09:56:49;8.70;91.70
27803;DHT22;15182;48.174;11.562;2023-02-05T09:59:24;8.90;91.70
27803;DHT22;15182;48.174;11.562;2023-02-05T10:01:58;9.10;91.40
27803;DHT22;15182;48.174;11.562;2023-02-05T10:04:31;9.20;91.20
27803;DHT22;15182;48.174;11.562;2023-02-05T10:07:12;9.30;91.20
27803;DHT22;15182;48.174;11.562;2023-02-05T10:13:26;9.60;90.80
27803;DHT22;15182;48.174;11.562;2023-02-05T10:16:15;9.80;90.40
27803;DHT22;15182;48.174;11.562;2023-02-05T10:19:00;9.80;90.00
27803;DHT22;15182;48.174;11.562;2023-02-05T10:21:49;9.90;90.10
27803;DHT22;15182;48.174;11.562;2023-02-05T10:24:40;9.90;90.10
27803;DHT22;15182;48.174;11.562;2023-02-05T10:27:34;9.90;89.80
27803;DHT22;15182;48.174;11.562;2023-02-05T10:30:12;9.90;89.50
27803;DHT22;15182;48.174;11.562;2023-02-05T10:32:54;10.00;90.10
27803;DHT22;15182;48.174;11.562;2023-02-05T10:35:29;10.10;90.30
27803;DHT22;15182;48.174;11.562;2023-02-05T10:38:16;10.20;90.30
27803;DHT22;15182;48.174;11.562;2023-02-05T10:40:53;10.40;90.30
27803;DHT22;15182;48.174;11.562;2023-02-05T10:43:33;10.50;90.00
27803;DHT22;15182;48.174;11.562;2023-02-05T10:46:12;10.70;89.40
27803;DHT22;15182;48.174;11.562;2023-02-05T10:48:46;10.70;89.60
27803;DHT22;15182;48.174;11.562;2023-02-05T10:51:26;10.80;89.00
27803;DHT22;15182;48.174;11.562;2023-02-05T10:54:02;10.90;88.00
27803;DHT22;15182;48.174;11.562;2023-02-05T10:56:37;10.80;88.20
27803;DHT22;15182;48.174;11.562;2023-02-05T10:59:17;10.80;88.60
27803;DHT22;15182;48.174;11.562;2023-02-05T11:01:49;10.70;87.90
27803;DHT22;15182;48.174;11.562;2023-02-05T11:04:28;10.60;88.20
27803;DHT22;15182;48.174;11.562;2023-02-05T11:07:04;10.50;88.00
27803;DHT22;15182;48.174;11.562;2023-02-05T11:09:41;10.50;88.40
27803;DHT22;15182;48.174;11.562;2023-02-05T11:12:19;10.40;88.60
27803;DHT22;15182;48.174;11.562;2023-02-05T11:14:59;10.40;88.40
27803;DHT22;15182;48.174;11.562;2023-02-05T11:17:34;10.40;87.60
27803;DHT22;15182;48.174;11.562;2023-02-05T11:20:20;10.40;88.40
27803;DHT22;15182;48.174;11.562;2023-02-05T11:23:05;10.30;87.30
27803;DHT22;15182;48.174;11.562;2023-02-05T11:25:48;10.30;86.90
27803;DHT22;15182;48.174;11.562;2023-02-05T11:28:21;10.20;87.00
27803;DHT22;15182;48.174;11.562;2023-02-05T11:30:56;10.10;87.10
27803;DHT22;15182;48.174;11.562;2023-02-05T11:33:46;10.10;86.90
27803;DHT22;15182;48.174;11.562;2023-02-05T11:36:20;10.00;87.20
27803;DHT22;15182;48.174;11.562;2023-02-05T11:38:54;9.90;87.10
27803;DHT22;15182;48.174;11.562;2023-02-05T11:41:28;9.90;87.30
27803;DHT22;15182;48.174;11.562;2023-02-05T11:44:19;9.80;87.30
27803;DHT22;15182;48.174;11.562;2023-02-05T11:46:54;9.80;87.50
27803;DHT22;15182;48.174;11.562;2023-02-05T11:49:32;9.70;87.60
27803;DHT22;15182;48.174;11.562;2023-02-05T11:52:11;9.70;87.90
27803;DHT22;15182;48.174;11.562;2023-02-05T11:54:45;9.70;88.50
27803;DHT22;15182;48.174;11.562;2023-02-05T11:57:39;9.70;88.30
27803;DHT22;15182;48.174;11.562;2023-02-05T12:00:20;9.60;88.20
27803;DHT22;15182;48.174;11.562;2023-02-05T12:03:02;9.60;88.10
27803;DHT22;15182;48.174;11.562;2023-02-05T12:05:38;9.50;88.20
27803;DHT22;15182;48.174;11.562;2023-02-05T12:08:23;9.50;88.40
27803;DHT22;15182;48.174;11.562;2023-02-05T12:10:58;9.40;88.20
27803;DHT22;15182;48.174;11.562;2023-02-05T12:13:44;9.40;88.20
27803;DHT22;15182;48.174;11.562;2023-02-05T12:16:33;9.30;88.40
27803;DHT22;15182;48.174;11.562;2023-02-05T12:19:19;9.20;88.40
27803;DHT22;15182;48.174;11.562;2023-02-05T12:22:00;9.20;88.40
27803;DHT22;15182;48.174;11.562;2023-02-05T12:24:51;9.20;88.50
27803;DHT22;15182;48.174;11.562;2023-02-05T12:27:36;9.20;88.60
27803;DHT22;15182;48.174;11.562;2023-02-05T12:30:25;9.20;88.80
27803;DHT22;15182;48.174;11.562;2023-02-05T12:33:12;9.20;88.90
27803;DHT22;15182;48.174;11.562;2023-02-05T12:36:02;9.20;88.90
27803;DHT22;15182;48.174;11.562;2023-02-05T12:38:54;9.10;88.90
27803;DHT22;15182;48.174;11.562;2023-02-05T12:41:35;9.10;89.00
27803;DHT22;15182;48.174;11.562;2023-02-05T12:44:25;9.10;89.90
27803;DHT22;15182;48.174;11.562;2023-02-05T12:47:11;9.10;89.30
27803;DHT22;15182;48.174;11.562;2023-02-05T12:49:58;9.10;89.60
27803;DHT22;15182;48.174;11.562;2023-02-05T12:52:50;9.10;89.70
27803;DHT22;15182;48.174;11.562;2023-02-05T12:55:33;9.10;89.80
27803;DHT22;15182;48.174;11.562;2023-02-05T12:58:14;9.10;89.80
27803;DHT22;15182;48.174;11.562;2023-02-05T13:00:51;9.10;89.90
27803;DHT22;15182;48.174;11.562;2023-02-05T13:03:29;9.10;89.80
27803;DHT22;15182;48.174;11.562;2023-02-05T13:06:10;9.00;90.30
27803;DHT22;15182;48.174;11.562;2023-02-05T13:08:49;9.00;89.90
27803;DHT22;15182;48.174;11.562;2023-02-05T13:11:27;9.00;89.90
27803;DHT22;15182;48.174;11.562;2023-02-05T13:14:06;9.00;90.00
27803;DHT22;15182;48.174;11.562;2023-02-05T13:16:43;9.00;90.00
27803;DHT22;15182;48.174;11.562;2023-02-05T13:19:21;9.00;90.00
27803;DHT22;15182;48.174;11.562;2023-02-05T13:21:58;9.00;90.00
27803;DHT22;15182;48.174;11.562;2023-02-05T13:24:54;9.00;90.00
27803;DHT22;15182;48.174;11.562;2023-02-05T13:27:50;9.00;90.00
27803;DHT22;15182;48.174;11.562;2023-02-05T13:30:45;8.90;90.10
27803;DHT22;15182;48.174;11.562;2023-02-05T13:33:18;8.80;90.30
27803;DHT22;15182;48.174;11.562;2023-02-05T13:35:56;8.80;90.40
27803;DHT22;15182;48.174;11.562;2023-02-05T13:38:50;8.70;90.60
27803;DHT22;15182;48.174;11.562;2023-02-05T13:41:48;8.70;90.90
27803;DHT22;15182;48.174;11.562;2023-02-05T13:44:50;8.60;91.00
27803;DHT22;15182;48.174;11.562;2023-02-05T13:48:06;8.60;91.20
27803;DHT22;15182;48.174;11.562;2023-02-05T13:51:18;8.60;91.20
27803;DHT22;15182;48.174;11.562;2023-02-05T13:57:54;8.60;91.50
27803;DHT22;15182;48.174;11.562;2023-02-05T14:00:55;8.50;91.60
27803;DHT22;15182;48.174;11.562;2023-02-05T14:03:39;8.50;91.60
27803;DHT22;15182;48.174;11.562;2023-02-05T14:06:26;8.50;91.80
27803;DHT22;15182;48.174;11.562;2023-02-05T14:09:00;8.50;91.90
27803;DHT22;15182;48.174;11.562;2023-02-05T14:11:51;8.50;91.80
27803;DHT22;15182;48.174;11.562;2023-02-05T14:14:31;8.50;92.10
27803;DHT22;15182;48.174;11.562;2023-02-05T14:17:50;8.50;92.10
27803;DHT22;15182;48.174;11.562;2023-02-05T14:20:32;8.50;92.10
27803;DHT22;15182;48.174;11.562;2023-02-05T14:26:43;8.50;92.30
27803;DHT22;15182;48.174;11.562;2023-02-05T14:29:38;8.50;92.40
27803;DHT22;15182;48.174;11.562;2023-02-05T14:32:12;8.50;92.50
27803;DHT22;15182;48.174;11.562;2023-02-05T14:35:29;8.50;92.70
27803;DHT22;15182;48.174;11.562;2023-02-05T14:38:19;8.50;92.50
27803;DHT22;15182;48.174;11.562;2023-02-05T14:41:10;8.50;92.70
27803;DHT22;15182;48.174;11.562;2023-02-05T14:43:45;8.60;92.70
27803;DHT22;15182;48.174;11.562;2023-02-05T14:46:30;8.60;92.70
27803;DHT22;15182;48.174;11.562;2023-02-05T14:49:05;8.50;92.80
27803;DHT22;15182;48.174;11.562;2023-02-05T14:51:53;8.50;92.70
27803;DHT22;15182;48.174;11.562;2023-02-05T14:54:29;8.50;92.80
27803;DHT22;15182;48.174;11.562;2023-02-05T14:57:15;8.50;92.80
27803;DHT22;15182;48.174;11.562;2023-02-05T14:59:52;8.50;93.00
27803;DHT22;15182;48.174;11.562;2023-02-05T15:03:05;8.50;93.00
27803;DHT22;15182;48.174;11.562;2023-02-05T15:05:47;8.50;93.20
27803;DHT22;15182;48.174;11.562;2023-02-05T15:08:38;8.50;93.20
27803;DHT22;15182;48.174;11.562;2023-02-05T15:11:16;8.50;93.20
27803;DHT22;15182;48.174;11.562;2023-02-05T15:14:25;8.50;93.20
27803;DHT22;15182;48.174;11.562;2023-02-05T15:20:24;8.50;93.30
27803;DHT22;15182;48.174;11.562;2023-02-05T15:23:05;8.50;93.30
27803;DHT22;15182;48.174;11.562;2023-02-05T15:25:45;8.50;93.40
27803;DHT22;15182;48.174;11.562;2023-02-05T15:28:24;8.50;93.40
27803;DHT22;15182;48.174;11.562;2023-02-05T15:31:28;8.50;93.50
27803;DHT22;15182;48.174;11.562;2023-02-05T15:34:04;8.50;93.60
27803;DHT22;15182;48.174;11.562;2023-02-05T15:36:44;8.50;93.50
27803;DHT22;15182;48.174;11.562;2023-02-05T15:39:28;8.50;93.50
27803;DHT22;15182;48.174;11.562;2023-02-05T15:42:02;8.50;93.70
27803;DHT22;15182;48.174;11.562;2023-02-05T15:44:36;8.50;93.70
27803;DHT22;15182;48.174;11.562;2023-02-05T15:47:12;8.50;93.70
27803;DHT22;15182;48.174;11.562;2023-02-05T15:49:50;8.50;93.70
27803;DHT22;15182;48.174;11.562;2023-02-05T15:52:29;8.50;93.70
27803;DHT22;15182;48.174;11.562;2023-02-05T15:55:07;8.50;93.80
27803;DHT22;15182;48.174;11.562;2023-02-05T15:57:44;8.50;93.80
27803;DHT22;15182;48.174;11.562;2023-02-05T16:00:21;8.40;93.90
27803;DHT22;15182;48.174;11.562;2023-02-05T16:02:56;8.40;94.00
27803;DHT22;15182;48.174;11.562;2023-02-05T16:05:31;8.40;94.00
27803;DHT22;15182;48.174;11.562;2023-02-05T16:08:13;8.40;94.10
27803;DHT22;15182;48.174;11.562;2023-02-05T16:10:53;8.40;94.00
27803;DHT22;15182;48.174;11.562;2023-02-05T16:13:30;8.40;94.20
27803;DHT22;15182;48.174;11.562;2023-02-05T16:16:02;8.40;94.10
27803;DHT22;15182;48.174;11.562;2023-02-05T16:18:42;8.40;94.10
27803;DHT22;15182;48.174;11.562;2023-02-05T16:21:20;8.30;94.20
27803;DHT22;15182;48.174;11.562;2023-02-05T16:23:58;8.30;94.20
27803;DHT22;15182;48.174;11.562;2023-02-05T16:26:38;8.30;94.10
27803;DHT22;15182;48.174;11.562;2023-02-05T16:29:20;8.30;94.30
27803;DHT22;15182;48.174;11.562;2023-02-05T16:32:00;8.30;94.30
27803;DHT22;15182;48.174;11.562;2023-02-05T16:34:37;8.20;94.30
27803;DHT22;15182;48.174;11.562;2023-02-05T16:37:11;8.20;94.40
27803;DHT22;15182;48.174;11.562;2023-02-05T16:39:48;8.20;94.30
27803;DHT22;15182;48.174;11.562;2023-02-05T16:42:32;8.20;94.40
27803;DHT22;15182;48.174;11.562;2023-02-05T16:45:23;8.10;94.50
27803;DHT22;15182;48.174;11.562;2023-02-05T16:48:19;8.10;94.60